createdAt,value
2018-03-20T10:25:10.314Z,28.60
2018-03-20T10:27:44.886Z,28.80
2018-03-20T10:30:19.871Z,28.70
2018-03-20T10:32:54.347Z,34.00
2018-03-20T10:35:29.274Z,29.80
2018-03-20T10:38:03.928Z,29.90
2018-03-20T10:40:38.566Z,29.80
2018-03-20T10:43:13.166Z,29.80
2018-03-20T10:45:47.822Z,29.80
2018-03-20T10:48:23.821Z,29.70
2018-03-20T10:50:58.394Z,29.90
2018-03-20T10:53:34.570Z,29.90
2018-03-20T10:56:10.043Z,30.00
2018-03-20T10:58:44.838Z,29.90
2018-03-20T11:01:25.917Z,29.80
2018-03-20T11:04:00.829Z,29.80
2018-03-20T11:06:35.677Z,29.90
2018-03-20T11:09:10.397Z,29.80
2018-03-20T11:11:45.625Z,29.90
2018-03-20T11:14:21.157Z,29.80
2018-03-20T11:16:55.921Z,29.80
2018-03-20T11:19:30.675Z,29.90
2018-03-20T11:22:05.473Z,30.00
2018-03-20T11:24:40.164Z,30.00
2018-03-20T11:27:15.032Z,29.70
2018-03-20T11:29:49.822Z,30.10
2018-03-20T11:32:24.799Z,30.00
2018-03-20T11:35:00.238Z,33.80
2018-03-20T11:37:35.086Z,34.70
2018-03-20T11:40:09.723Z,30.30
2018-03-20T11:42:44.288Z,33.10
2018-03-20T11:45:18.970Z,31.00
2018-03-20T11:47:53.952Z,29.90
2018-03-20T11:50:28.603Z,32.30
2018-03-20T11:53:04.312Z,32.00
2018-03-20T11:55:38.953Z,32.00
2018-03-20T11:58:13.504Z,31.40
2018-03-20T12:00:47.989Z,31.10
2018-03-20T12:03:22.754Z,30.00
2018-03-20T12:05:57.484Z,29.70
2018-03-20T12:08:43.949Z,29.70
2018-03-20T12:11:21.043Z,29.70
2018-03-20T12:13:55.993Z,29.70
2018-03-20T12:16:30.711Z,30.30
2018-03-20T12:19:06.297Z,29.60
2018-03-20T12:21:41.986Z,29.30
2018-03-20T12:24:16.650Z,29.30
2018-03-20T12:26:51.480Z,29.40
2018-03-20T12:29:26.418Z,29.40
2018-03-20T12:32:01.195Z,30.10
2018-03-20T12:34:35.765Z,33.10
2018-03-20T12:37:10.389Z,30.70
2018-03-20T12:39:44.907Z,30.10
2018-03-20T12:42:19.946Z,30.70
2018-03-20T12:44:54.562Z,29.80
2018-03-20T12:47:29.188Z,30.50
2018-03-20T12:50:04.114Z,30.30
2018-03-20T12:52:38.755Z,30.00
2018-03-20T12:55:13.490Z,30.70
2018-03-20T12:57:48.838Z,29.60
2018-03-20T13:00:23.404Z,31.40
2018-03-20T13:02:58.696Z,30.30
2018-03-20T13:05:33.832Z,30.00
2018-03-20T13:08:09.090Z,29.80
2018-03-20T13:10:43.638Z,30.90
2018-03-20T13:13:18.391Z,30.20
2018-03-20T13:15:53.042Z,30.00
2018-03-20T13:18:27.686Z,30.00
2018-03-20T13:21:03.297Z,31.00
2018-03-20T13:23:38.041Z,29.90
2018-03-20T13:26:12.986Z,30.80
2018-03-20T13:28:48.018Z,30.60
2018-03-20T13:31:22.805Z,30.30
2018-03-20T13:33:57.560Z,30.00
2018-03-20T13:36:33.111Z,30.00
2018-03-20T13:39:07.758Z,30.00
2018-03-20T13:41:42.464Z,29.80
2018-03-20T13:44:17.099Z,29.70
2018-03-20T13:46:52.391Z,30.00
2018-03-20T13:49:26.896Z,29.90
2018-03-20T13:52:01.681Z,30.00
2018-03-20T13:54:36.524Z,30.30
2018-03-20T13:57:11.131Z,30.30
2018-03-20T13:59:45.770Z,30.30
2018-03-20T14:02:20.246Z,30.00
2018-03-20T14:04:54.907Z,30.10
2018-03-20T14:07:29.779Z,30.50
2018-03-20T14:10:06.723Z,30.60
2018-03-20T14:12:42.792Z,30.40
2018-03-20T14:15:18.644Z,30.50
2018-03-20T14:17:53.490Z,30.60
2018-03-20T14:20:28.588Z,31.70
2018-03-20T14:23:04.144Z,30.80
2018-03-20T14:25:40.099Z,30.70
2018-03-20T14:28:15.657Z,27.80
2018-03-20T14:30:51.006Z,24.40
2018-03-20T14:33:25.866Z,24.30
2018-03-20T14:36:00.451Z,23.70
2018-03-20T14:38:36.004Z,23.60
2018-03-20T14:41:10.865Z,23.60
2018-03-20T14:43:45.510Z,23.50
2018-03-20T14:46:20.299Z,23.40
2018-03-20T14:48:56.481Z,23.40
2018-03-20T14:51:31.138Z,23.40
2018-03-20T14:54:06.614Z,23.50
2018-03-20T14:56:41.356Z,23.50
2018-03-20T14:59:15.954Z,23.20
2018-03-20T15:01:50.801Z,23.40
2018-03-20T15:04:25.580Z,23.50
2018-03-20T15:07:00.263Z,23.40
2018-03-20T15:09:34.974Z,23.20
2018-03-20T15:12:11.747Z,24.30
2018-03-20T15:14:46.421Z,23.20
2018-03-20T15:17:21.919Z,23.20
2018-03-20T15:19:57.793Z,23.10
2018-03-20T15:22:32.297Z,23.10
2018-03-20T15:25:06.868Z,23.00
2018-03-20T15:27:41.398Z,23.00
2018-03-20T15:30:15.902Z,23.00
2018-03-20T15:32:50.822Z,23.00
2018-03-20T15:35:25.526Z,22.90
2018-03-20T15:38:00.425Z,23.50
2018-03-20T15:40:35.104Z,22.70
2018-03-20T15:43:10.115Z,23.70
2018-03-20T15:45:45.666Z,19.80
2018-03-20T15:48:20.203Z,19.70
2018-03-20T15:50:55.416Z,19.00
2018-03-20T15:53:30.258Z,18.90
2018-03-20T15:56:04.827Z,19.20
2018-03-20T15:58:39.480Z,18.60
2018-03-20T16:01:14.232Z,18.20
2018-03-20T16:03:49.868Z,17.60
2018-03-20T16:06:24.655Z,17.60
2018-03-20T16:08:59.333Z,17.50
2018-03-20T16:11:33.860Z,17.50
2018-03-20T16:14:08.586Z,17.30
2018-03-20T16:16:44.317Z,17.40
2018-03-20T16:19:18.929Z,17.30
2018-03-20T16:21:53.530Z,17.60
2018-03-20T16:24:28.193Z,17.60
2018-03-20T16:27:02.834Z,17.70
2018-03-20T16:29:37.366Z,18.00
2018-03-20T16:32:11.891Z,17.40
2018-03-20T16:34:47.086Z,19.40
2018-03-20T16:37:21.744Z,21.10
2018-03-20T16:39:57.058Z,22.00
